createdAt,value
2018-12-17T00:01:31.391Z,81.494141
2018-12-17T00:04:59.276Z,82.537842
2018-12-17T00:08:32.041Z,81.70166
2018-12-17T00:11:58.015Z,81.219482
2018-12-17T00:15:25.896Z,81.634521
2018-12-17T00:18:53.768Z,82.055664
2018-12-17T00:22:21.651Z,81.5979
2018-12-17T00:25:49.534Z,82.226562
2018-12-17T00:29:17.418Z,82.055664
2018-12-17T00:32:45.293Z,82.366943
2018-12-17T00:36:13.178Z,81.848145
2018-12-17T00:39:41.061Z,81.738281
2018-12-17T00:43:08.936Z,81.848145
2018-12-17T00:46:37.819Z,82.263184
2018-12-17T00:50:05.710Z,82.159424
2018-12-17T00:53:33.580Z,82.159424
2018-12-17T00:57:01.466Z,82.055664
2018-12-17T01:00:29.354Z,81.738281
2018-12-17T01:03:58.233Z,82.055664
2018-12-17T01:07:26.101Z,81.634521
2018-12-17T01:10:53.993Z,81.848145
2018-12-17T01:14:21.882Z,82.055664
2018-12-17T01:17:49.748Z,82.366943
2018-12-17T01:21:17.635Z,82.055664
2018-12-17T01:24:45.518Z,82.366943
2018-12-17T01:28:13.392Z,82.684326
2018-12-17T01:31:44.237Z,82.891846
2018-12-17T01:35:12.128Z,82.684326
2018-12-17T01:38:39.998Z,83.416748
2018-12-17T01:42:07.886Z,82.580566
2018-12-17T01:45:35.764Z,83.099365
2018-12-17T01:49:03.638Z,83.099365
2018-12-17T01:52:31.526Z,83.312988
2018-12-17T01:55:59.415Z,82.824707
2018-12-17T01:59:27.304Z,82.928467
2018-12-17T02:02:55.176Z,83.978271
2018-12-17T02:06:23.064Z,83.660889
2018-12-17T02:09:50.951Z,83.349609
2018-12-17T02:13:18.821Z,83.24585
2018-12-17T02:16:46.708Z,83.453369
2018-12-17T02:20:14.592Z,83.24585
2018-12-17T02:23:42.465Z,83.557129
2018-12-17T02:27:10.355Z,83.660889
2018-12-17T02:30:38.248Z,83.520508
2018-12-17T02:34:06.129Z,83.453369
2018-12-17T02:37:34.002Z,83.660889
2018-12-17T02:41:01.891Z,84.606934
2018-12-17T02:44:29.784Z,84.503174
2018-12-17T02:47:57.659Z,84.185791
2018-12-17T02:51:25.540Z,84.393311
2018-12-17T02:54:53.423Z,83.874512
2018-12-17T02:58:21.311Z,83.874512
2018-12-17T03:01:49.183Z,84.289551
2018-12-17T03:05:17.065Z,83.978271
2018-12-17T03:08:44.955Z,83.874512
2018-12-17T03:12:12.827Z,84.082031
2018-12-17T03:15:40.704Z,84.185791
2018-12-17T03:19:08.598Z,84.710693
2018-12-17T03:22:36.457Z,84.606934
2018-12-17T03:26:04.347Z,84.918213
2018-12-17T03:29:32.233Z,84.814453
2018-12-17T03:33:00.113Z,84.851074
2018-12-17T03:36:27.983Z,85.064697
2018-12-17T03:39:55.886Z,84.332275
2018-12-17T03:43:23.773Z,84.851074
2018-12-17T03:46:51.641Z,84.851074
2018-12-17T03:50:19.537Z,84.960938
2018-12-17T03:53:47.416Z,84.960938
2018-12-17T03:57:15.288Z,84.643555
2018-12-17T04:00:43.169Z,84.393311
2018-12-17T04:04:11.056Z,84.643555
2018-12-17T04:07:38.936Z,84.960938
2018-12-17T04:11:06.803Z,84.960938
2018-12-17T04:14:34.690Z,84.747314
2018-12-17T04:18:02.581Z,84.222412
2018-12-17T04:21:30.454Z,85.064697
2018-12-17T04:24:58.341Z,84.747314
2018-12-17T04:28:26.226Z,84.960938
2018-12-17T04:31:54.087Z,85.168457
2018-12-17T04:35:21.976Z,84.747314
2018-12-17T04:38:50.703Z,85.168457
2018-12-17T04:42:17.757Z,85.479736
2018-12-17T04:45:45.620Z,85.418701
2018-12-17T04:49:13.505Z,85.626221
2018-12-17T04:52:41.393Z,85.9375
2018-12-17T04:56:09.263Z,85.9375
2018-12-17T04:59:37.145Z,85.9375
2018-12-17T05:03:05.038Z,86.358643
2018-12-17T05:06:32.917Z,86.566162
2018-12-17T05:10:00.798Z,86.322021
2018-12-17T05:13:28.685Z,86.425781
2018-12-17T05:16:56.576Z,85.900879
2018-12-17T05:20:24.445Z,86.425781
2018-12-17T05:23:52.329Z,85.900879
2018-12-17T05:27:20.245Z,86.004639
2018-12-17T05:30:48.083Z,85.900879
2018-12-17T05:34:15.971Z,84.960938
2018-12-17T05:37:43.862Z,84.643555
2018-12-17T05:41:11.765Z,85.272217
2018-12-17T05:44:39.625Z,85.5896
2018-12-17T05:48:08.503Z,85.5896
2018-12-17T05:51:36.388Z,86.004639
2018-12-17T05:55:04.256Z,85.479736
2018-12-17T05:58:32.143Z,85.626221
2018-12-17T06:02:00.037Z,85.83374
2018-12-17T06:05:27.908Z,86.254883
2018-12-17T06:08:55.792Z,86.462402
2018-12-17T06:12:24.680Z,86.254883
2018-12-17T06:15:52.655Z,86.779785
2018-12-17T06:19:20.525Z,87.237549
2018-12-17T06:22:48.415Z,87.658691
2018-12-17T06:26:16.301Z,88.07373
2018-12-17T06:29:44.170Z,87.762451
2018-12-17T06:33:15.720Z,87.591553
2018-12-17T06:36:42.918Z,88.433838
2018-12-17T06:40:10.791Z,88.745117
2018-12-17T06:43:38.682Z,88.745117
2018-12-17T06:47:06.567Z,88.641357
2018-12-17T06:50:35.429Z,88.891602
2018-12-17T06:54:03.318Z,88.891602
2018-12-17T06:57:31.204Z,89.624023
2018-12-17T07:00:59.090Z,89.837646
2018-12-17T07:04:26.963Z,89.770508
2018-12-17T07:07:54.850Z,90.29541
2018-12-17T07:11:22.722Z,90.509033
2018-12-17T07:14:50.604Z,90.29541
2018-12-17T07:18:18.499Z,90.820312
2018-12-17T07:21:46.384Z,90.19165
2018-12-17T07:25:14.264Z,90.612793
2018-12-17T07:28:42.151Z,91.070557
2018-12-17T07:32:10.044Z,90.966797
2018-12-17T07:35:37.916Z,91.070557
2018-12-17T07:39:05.803Z,91.491699
2018-12-17T07:42:33.694Z,91.070557
2018-12-17T07:46:01.564Z,91.28418
2018-12-17T07:49:31.441Z,90.966797
2018-12-17T07:52:59.318Z,90.759277
2018-12-17T07:56:27.189Z,90.759277
2018-12-17T07:59:57.111Z,91.18042
2018-12-17T08:03:24.943Z,91.595459
2018-12-17T08:06:52.832Z,90.655518
2018-12-17T08:10:20.705Z,90.655518
2018-12-17T08:13:49.585Z,90.863037
2018-12-17T08:17:17.470Z,91.491699
2018-12-17T08:20:45.349Z,91.491699
2018-12-17T08:24:14.235Z,91.28418
2018-12-17T08:27:42.118Z,91.448975
2018-12-17T08:31:09.989Z,91.345215
2018-12-17T08:34:37.877Z,91.448975
2018-12-17T08:38:05.766Z,91.033936
2018-12-17T08:41:33.653Z,91.241455
2018-12-17T08:45:01.531Z,90.612793
2018-12-17T08:48:29.411Z,90.612793
2018-12-17T08:51:57.301Z,90.716553
2018-12-17T08:55:25.167Z,90.29541
2018-12-17T08:58:53.055Z,89.941406
2018-12-17T09:02:20.945Z,90.252686
2018-12-17T09:05:49.808Z,89.624023
2018-12-17T09:09:17.695Z,90.466309
2018-12-17T09:12:45.585Z,90.319824
2018-12-17T09:16:13.455Z,89.440918
2018-12-17T09:19:41.346Z,88.598633
2018-12-17T09:23:09.235Z,88.812256
2018-12-17T09:26:37.105Z,88.458252
2018-12-17T09:30:05.001Z,88.458252
2018-12-17T09:33:32.888Z,87.994385
2018-12-17T09:37:00.758Z,88.311768
2018-12-17T09:40:28.651Z,87.365723
2018-12-17T09:43:56.535Z,87.432861
2018-12-17T09:47:25.397Z,86.383057
2018-12-17T09:50:53.282Z,86.383057
2018-12-17T09:54:21.178Z,85.968018
2018-12-17T09:57:49.049Z,86.242676
2018-12-17T10:01:17.183Z,85.089111
2018-12-17T10:04:45.069Z,84.674072
2018-12-17T10:08:12.954Z,84.14917
2018-12-17T10:11:40.833Z,84.423828
2018-12-17T10:15:08.724Z,84.320068
2018-12-17T10:18:37.600Z,84.002686
2018-12-17T10:22:05.466Z,83.898926
2018-12-17T10:25:34.343Z,82.714844
2018-12-17T10:29:03.221Z,81.982422
2018-12-17T10:32:31.093Z,81.732178
2018-12-17T10:35:58.981Z,81.420898
2018-12-17T10:39:26.863Z,80.688477
2018-12-17T10:42:54.754Z,81.591797
2018-12-17T10:46:22.621Z,81.134033
2018-12-17T10:49:50.509Z,80.718994
2018-12-17T10:53:18.391Z,79.571533
2018-12-17T10:56:46.270Z,79.467773
2018-12-17T11:00:15.156Z,79.711914
2018-12-17T11:03:43.034Z,79.290771
2018-12-17T11:07:10.915Z,79.956055
2018-12-17T11:10:39.789Z,80.236816
2018-12-17T11:14:07.683Z,80.273438
2018-12-17T11:17:36.547Z,79.504395
2018-12-17T11:21:04.431Z,80.126953
2018-12-17T11:24:32.320Z,80.859375
2018-12-17T11:28:01.179Z,80.444336
2018-12-17T11:31:29.064Z,80.963135
2018-12-17T11:34:56.949Z,79.083252
2018-12-17T11:38:24.821Z,79.711914
2018-12-17T11:41:52.701Z,79.608154
2018-12-17T11:45:20.588Z,80.511475
2018-12-17T11:48:48.482Z,79.882812
2018-12-17T11:52:16.350Z,79.882812
2018-12-17T11:55:44.240Z,79.467773
2018-12-17T11:59:12.120Z,79.150391
2018-12-17T12:02:39.995Z,79.882812
2018-12-17T12:06:13.810Z,79.260254
2018-12-17T12:09:39.728Z,79.571533
2018-12-17T12:13:07.601Z,78.875732
2018-12-17T12:16:36.484Z,79.260254
2018-12-17T12:20:04.369Z,79.675293
2018-12-17T12:23:32.255Z,79.364014
2018-12-17T12:27:00.130Z,79.779053
2018-12-17T12:30:28.021Z,79.882812
2018-12-17T12:33:55.907Z,80.407715
2018-12-17T12:37:23.774Z,80.718994
2018-12-17T12:40:52.661Z,80.926514
2018-12-17T12:44:20.553Z,81.451416
2018-12-17T12:47:48.423Z,81.347656
2018-12-17T12:51:16.310Z,81.243896
2018-12-17T12:54:44.186Z,79.882812
2018-12-17T12:58:12.051Z,80.200195
2018-12-17T13:01:39.932Z,80.615234
2018-12-17T13:05:07.816Z,80.718994
2018-12-17T13:08:35.690Z,80.926514
2018-12-17T13:12:03.574Z,80.926514
2018-12-17T13:15:31.454Z,80.615234
2018-12-17T13:18:59.336Z,81.451416
2018-12-17T13:22:27.200Z,81.134033
2018-12-17T13:25:55.090Z,81.970215
2018-12-17T13:29:22.971Z,82.183838
2018-12-17T13:32:50.841Z,82.843018
2018-12-17T13:36:18.730Z,82.324219
2018-12-17T13:39:47.607Z,82.324219
2018-12-17T13:43:15.476Z,82.220459
2018-12-17T13:46:44.358Z,82.220459
2018-12-17T13:50:12.247Z,82.739258
2018-12-17T13:53:41.131Z,82.220459
2018-12-17T13:57:08.998Z,82.531738
2018-12-17T14:00:36.881Z,83.056641
2018-12-17T14:04:04.765Z,82.116699
2018-12-17T14:07:32.642Z,83.056641
2018-12-17T14:11:00.543Z,83.056641
2018-12-17T14:14:28.526Z,83.056641
2018-12-17T14:17:56.400Z,83.26416
2018-12-17T14:21:24.290Z,83.782959
2018-12-17T14:24:52.173Z,83.404541
2018-12-17T14:28:20.047Z,84.033203
2018-12-17T14:31:47.933Z,84.344482
2018-12-17T14:35:15.819Z,84.515381
2018-12-17T14:38:43.692Z,84.240723
2018-12-17T14:42:12.572Z,84.240723
2018-12-17T14:45:41.451Z,83.929443
2018-12-17T14:49:09.318Z,84.240723
2018-12-17T14:52:37.206Z,84.240723
2018-12-17T14:56:05.100Z,83.618164
2018-12-17T14:59:32.984Z,83.825684
2018-12-17T15:03:00.866Z,83.618164
2018-12-17T15:06:28.745Z,84.558105
2018-12-17T15:09:56.636Z,84.136963
2018-12-17T15:13:24.511Z,84.240723
2018-12-17T15:16:52.391Z,83.721924
2018-12-17T15:20:20.287Z,83.508301
2018-12-17T15:23:48.169Z,84.454346
2018-12-17T15:27:16.048Z,85.076904
2018-12-17T15:30:43.928Z,84.454346
2018-12-17T15:34:11.795Z,84.558105
2018-12-17T15:37:39.682Z,84.973145
2018-12-17T15:41:07.560Z,84.973145
2018-12-17T15:44:35.430Z,84.869385
2018-12-17T15:48:03.327Z,85.180664
2018-12-17T15:51:31.214Z,85.601807
2018-12-17T15:54:59.172Z,85.394287
2018-12-17T15:58:28.052Z,85.394287
2018-12-17T16:01:55.938Z,84.765625
2018-12-17T16:05:24.830Z,85.705566
2018-12-17T16:08:52.703Z,84.661865
2018-12-17T16:12:21.579Z,84.973145
2018-12-17T16:15:49.466Z,85.290527
2018-12-17T16:19:19.594Z,85.498047
2018-12-17T16:22:47.487Z,86.016846
2018-12-17T16:26:15.376Z,85.498047
2018-12-17T16:29:44.240Z,86.016846
2018-12-17T16:33:12.124Z,85.498047
2018-12-17T16:36:40.997Z,86.126709
2018-12-17T16:40:08.887Z,86.126709
2018-12-17T16:43:36.759Z,86.230469
2018-12-17T16:47:04.642Z,86.541748
2018-12-17T16:50:32.532Z,86.645508
2018-12-17T16:54:00.398Z,86.230469
2018-12-17T16:57:29.271Z,86.962891
2018-12-17T17:00:57.162Z,86.853027
2018-12-17T17:04:26.080Z,87.27417
2018-12-17T17:07:53.951Z,86.749268
2018-12-17T17:11:21.830Z,86.645508
2018-12-17T17:14:49.731Z,87.37793
2018-12-17T17:18:17.603Z,86.749268
2018-12-17T17:21:45.491Z,86.853027
2018-12-17T17:25:13.382Z,86.230469
2018-12-17T17:28:41.263Z,86.016846
2018-12-17T17:32:11.715Z,86.541748
2018-12-17T17:35:39.049Z,86.016846
2018-12-17T17:39:06.918Z,86.016846
2018-12-17T17:42:34.799Z,86.230469
2018-12-17T17:46:02.716Z,86.016846
2018-12-17T17:49:30.582Z,86.749268
2018-12-17T17:52:58.464Z,86.749268
2018-12-17T17:56:26.365Z,87.06665
2018-12-17T17:59:54.239Z,87.06665
2018-12-17T18:03:22.128Z,87.37793
2018-12-17T18:06:50.014Z,87.481689
2018-12-17T18:10:18.082Z,87.37793
2018-12-17T18:13:45.976Z,87.585449
2018-12-17T18:17:13.863Z,87.37793
2018-12-17T18:20:41.748Z,87.799072
2018-12-17T18:24:09.622Z,87.799072
2018-12-17T18:27:37.511Z,87.585449
2018-12-17T18:31:05.399Z,87.689209
2018-12-17T18:34:33.269Z,88.006592
2018-12-17T18:38:01.159Z,87.902832
2018-12-17T18:41:29.043Z,88.214111
2018-12-17T18:44:56.911Z,87.902832
2018-12-17T18:48:25.789Z,88.525391
2018-12-17T18:51:53.669Z,88.214111
2018-12-17T18:55:21.541Z,88.842773
2018-12-17T18:58:49.429Z,89.050293
2018-12-17T19:02:17.313Z,88.739014
2018-12-17T19:05:45.197Z,89.257812
2018-12-17T19:09:13.066Z,88.946533
2018-12-17T19:12:40.955Z,89.361572
2018-12-17T19:16:08.843Z,89.678955
2018-12-17T19:19:36.714Z,89.471436
2018-12-17T19:23:04.616Z,89.361572
2018-12-17T19:26:33.487Z,89.782715
2018-12-17T19:30:01.358Z,89.782715
2018-12-17T19:33:30.254Z,90.093994
2018-12-17T19:36:59.138Z,90.307617
2018-12-17T19:40:27.011Z,91.351318
2018-12-17T19:43:54.893Z,91.558838
2018-12-17T19:47:22.781Z,91.558838
2018-12-17T19:50:50.650Z,92.602539
2018-12-17T19:54:18.551Z,92.816162
2018-12-17T19:57:46.440Z,93.334961
2018-12-17T20:01:14.330Z,93.481445
2018-12-17T20:04:42.235Z,94.274902
2018-12-17T20:08:10.115Z,94.488525
2018-12-17T20:11:38.128Z,95.111084
2018-12-17T20:15:06.008Z,95.153809
2018-12-17T20:18:34.890Z,95.367432
2018-12-17T20:22:02.777Z,95.782471
2018-12-17T20:25:30.651Z,96.203613
2018-12-17T20:28:58.536Z,96.411133
2018-12-17T20:32:27.414Z,96.411133
2018-12-17T20:35:55.285Z,96.411133
2018-12-17T20:39:23.185Z,96.77124
2018-12-17T20:42:51.698Z,96.875
2018-12-17T20:46:19.596Z,96.875
2018-12-17T20:49:47.466Z,97.08252
2018-12-17T20:53:15.385Z,97.186279
2018-12-17T20:56:43.319Z,97.08252
2018-12-17T21:00:11.192Z,96.97876
2018-12-17T21:03:39.080Z,97.229004
2018-12-17T21:07:06.967Z,97.442627
2018-12-17T21:10:34.840Z,97.857666
2018-12-17T21:14:02.732Z,98.071289
2018-12-17T21:17:31.603Z,98.339844
2018-12-17T21:20:59.493Z,98.443604
2018-12-17T21:24:27.387Z,98.236084
2018-12-17T21:27:55.269Z,98.022461
2018-12-17T21:31:23.159Z,98.126221
2018-12-17T21:34:51.029Z,98.236084
2018-12-17T21:38:18.911Z,98.443604
2018-12-17T21:41:49.876Z,98.651123
2018-12-17T21:45:17.750Z,98.651123
2018-12-17T21:48:45.637Z,98.651123
2018-12-17T21:52:13.529Z,98.608398
2018-12-17T21:55:41.397Z,98.712158
2018-12-17T21:59:09.280Z,98.815918
2018-12-17T22:02:37.165Z,98.712158
2018-12-17T22:06:05.035Z,98.712158
2018-12-17T22:09:32.930Z,98.608398
2018-12-17T22:13:00.819Z,98.608398
2018-12-17T22:16:28.704Z,98.608398
2018-12-17T22:19:56.569Z,98.608398
2018-12-17T22:23:24.454Z,98.712158
2018-12-17T22:26:52.342Z,98.876953
2018-12-17T22:30:20.214Z,98.980713
2018-12-17T22:33:48.104Z,98.980713
2018-12-17T22:37:15.986Z,98.980713
2018-12-17T22:40:44.699Z,99.084473
2018-12-17T22:44:12.582Z,99.188232
2018-12-17T22:47:40.485Z,99.395752
2018-12-17T22:51:08.349Z,99.395752
2018-12-17T22:54:36.238Z,99.505615
2018-12-17T22:58:04.134Z,99.609375
2018-12-17T23:01:32.086Z,99.713135
2018-12-17T23:04:59.896Z,99.713135
2018-12-17T23:08:27.780Z,99.920654
2018-12-17T23:11:55.660Z,99.920654
2018-12-17T23:15:23.529Z,99.920654
2018-12-17T23:18:52.404Z,99.993896
2018-12-17T23:22:20.286Z,99.993896
2018-12-17T23:25:48.157Z,99.993896
2018-12-17T23:29:16.046Z,99.993896
2018-12-17T23:32:43.924Z,99.993896
2018-12-17T23:36:11.823Z,99.993896
2018-12-17T23:39:39.695Z,99.920654
2018-12-17T23:43:07.583Z,99.713135
2018-12-17T23:46:35.463Z,99.713135
2018-12-17T23:50:03.333Z,99.713135
2018-12-17T23:53:31.218Z,99.664307
2018-12-17T23:56:59.114Z,99.560547
